• Join FlightAware (Why Join?)
  • Login
  • US Flag 
03:13AM EST


 

Airport Tracker/Info


-or-


 

Live Flight TrackerFlight Track Log ✈ VH-DMN ✈ 02-May-2013 ✈ YDBY / DRB - YBRM / BME

Flight Track Log - Related Links

Times and Time Zones

All times are in EDT time to prevent confusion due to time zone crossing. See the VH-DMN flight status page for this flight to view local times or setup timezone preferences in your user account.

Time Position Orientation Groundspeed Altitude Reporting Facility
EDT Latitude Longitude Course Direction KTS MPH feet Rate Location/Type
12:24AM -17.4076 123.5723 59° Northeast 400  Level Aus ATC (Calculated)
12:24AM -17.4076 123.5723 247° West 400  Level Aus ATC (Calculated)
12:28AM -17.4272 123.5238 247° West  Level Estimated
12:28AM -17.4438 123.4834 67° East 400  Level Aus ATC (Calculated)
12:29AM -17.4336 123.5080 247° West  Level Estimated
12:30AM -17.4524 123.4623 247° West  Level Estimated
12:30AM -17.4438 123.4834 247° West 400  Level Aus ATC (Calculated)
12:31AM -17.4587 123.4465 247° West  Level Estimated
12:32AM -17.4651 123.4306 247° West  Level Estimated
12:33AM -17.4576 123.4494 247° West  Level Estimated
12:34AM -17.4640 123.4335 247° West  Level Estimated
12:35AM -17.4704 123.4177 247° West  Level Estimated
12:36AM -17.4767 123.4019 247° West  Level Estimated
12:37AM -17.4832 123.3859 247° West  Level FlightAware Approximate
12:37AM -17.5161 123.3055 67° East 400  Level Aus ATC (Calculated)
12:38AM -17.4897 123.3700 247° West  Level FlightAware Approximate
12:39AM -17.5232 123.2879 247° West  Level FlightAware Approximate
12:40AM -17.5297 123.2720 247° West  Level FlightAware Approximate
12:41AM -17.5361 123.2560 247° West  Level FlightAware Approximate
12:41AM -17.5522 123.2165 247° West 400  Level Aus ATC (Calculated)
12:43AM -17.5637 123.1880 247° West  Level FlightAware Approximate
12:44AM -17.5702 123.1721 247° West  Level FlightAware Approximate
12:45AM -17.5766 123.1561 247° West  Level FlightAware Approximate
12:46AM -17.5831 123.1401 247° West  Level FlightAware Approximate
12:47AM -17.5896 123.1241 247° West  Level FlightAware Approximate
12:48AM -17.5960 123.1081 247° West  Level FlightAware Approximate
12:49AM -17.6025 123.0921 247° West  Level FlightAware Approximate
12:50AM -17.6089 123.0762 247° West  Level FlightAware Approximate
12:50AM -17.6601 122.9493 360° North 400  Level Aus ATC (Calculated)
12:51AM -17.6601 122.9493 247° West 400  Level Aus ATC (Calculated)
12:52AM -17.6687 122.9280 247° West  Level FlightAware Approximate
12:53AM -17.6730 122.9173 247° West  Level FlightAware Approximate
12:53AM -17.6601 122.9493 329° Northwest 400  Level Aus ATC (Calculated)
12:53AM -17.6601 122.9493 247° West 400  Level Aus ATC (Calculated)
12:54AM -17.6795 122.9014 247° West  Level FlightAware Approximate
12:55AM -17.6859 122.8854 247° West  Level FlightAware Approximate
12:56AM -17.6743 122.9141 247° West  Level FlightAware Approximate
12:57AM -17.6808 122.8981 247° West  Level FlightAware Approximate
12:58AM -17.6872 122.8821 247° West  Level FlightAware Approximate
12:59AM -17.6936 122.8661 247° West  Level FlightAware Approximate
01:00AM -17.7001 122.8502 247° West  Level FlightAware Approximate
01:01AM -17.7065 122.8342 247° West  Level FlightAware Approximate
01:02AM -17.7130 122.8182 247° West  Level FlightAware Approximate
01:03AM -17.7194 122.8021 247° West  Level FlightAware Approximate
01:04AM -17.7258 122.7861 247° West  Level FlightAware Approximate
01:05AM -17.7323 122.7701 247° West  Level FlightAware Approximate
01:06AM -17.7387 122.7541 247° West  Level FlightAware Approximate
01:07AM -17.7451 122.7381 247° West  Level FlightAware Approximate
01:08AM -17.7515 122.7221 247° West  Level FlightAware Approximate
01:09AM -17.7580 122.7061 247° West  Level FlightAware Approximate
01:10AM -17.7644 122.6901 247° West  Level FlightAware Approximate
01:11AM -17.7708 122.6741 247° West  Level FlightAware Approximate
01:12AM -17.7773 122.6581 247° West  Level FlightAware Approximate
01:13AM -17.7837 122.6421 247° West  Level FlightAware Approximate